ENAL/AES METAR and TAF weather

Enter ICAO airport designator
Station Type Date Time Source
ENAL METAR 2021/07/28 05:20 UTC NOAA

ENAL 280520Z 00000KT CAVOK 17/16 Q1003


Station Type Date Time Source
ENAL Decoded METAR 2021/07/28 05:20 UTC NOAA

Alesund / Vigra, Norway (ENAL) 62-34N 006-07E 22M
Jul 28, 2021 - 01:20 AM EDT / 2021.07.28 0520 UTC
Wind: Calm:0
Visibility: greater than 7 mile(s):0
Temperature: 62 F (17 C)
Dew Point: 60 F (16 C)
Relative Humidity: 93%
Pressure (altimeter): 29.62 in. Hg (1003 hPa)
ob: ENAL 280520Z 00000KT CAVOK 17/16 Q1003
cycle: 5

Station Type Date Time Source
ENAL TAF UTC NOAA

Error!

Example: see airport list